Time;durP1;ratioP1;P1;durP2;ratioP2;P2;SDS_P1;SDS_P2;PMS_P1;PMS_P2;Temp;Humidity;BMP_temperature;BMP_pressure;BME280_temperature;BME280_humidity;BME280_pressure;Samples;Min_cycle;Max_cycle;Signal;HPM_P1;HPM_P2
2023/07/02 00:01:50;;;;;;;3.00;2.13;;;;;18.00;97962.00;;;;5022784;28;20042;-70
2023/07/02 00:04:19;;;;;;;5.18;2.60;;;;;18.00;97958.00;;;;5022531;28;20053;-69
2023/07/02 00:06:46;;;;;;;3.28;2.22;;;;;18.00;97964.00;;;;5021699;28;20128;-70
2023/07/02 00:09:14;;;;;;;3.75;2.20;;;;;18.00;97959.00;;;;5021523;28;20096;-70
2023/07/02 00:11:45;;;;;;;4.40;2.50;;;;;18.00;97971.00;;;;5021267;28;20142;-71
2023/07/02 00:14:14;;;;;;;5.30;2.30;;;;;17.90;97962.00;;;;5021205;28;20050;-71
2023/07/02 00:16:45;;;;;;;5.50;2.40;;;;;17.90;97964.00;;;;5021049;28;20066;-71
2023/07/02 00:19:14;;;;;;;3.58;2.00;;;;;17.90;97962.00;;;;5022814;28;20092;-70
2023/07/02 00:21:41;;;;;;;2.55;2.08;;;;;17.90;97954.00;;;;5022809;28;20050;-71
2023/07/02 00:24:12;;;;;;;2.58;2.13;;;;;17.80;97952.00;;;;5005119;28;20054;-70
2023/07/02 00:26:40;;;;;;;4.43;2.15;;;;;17.80;97948.00;;;;5022833;28;20121;-71
2023/07/02 00:29:10;;;;;;;4.72;2.90;;;;;17.80;97947.00;;;;5021153;28;20034;-70
2023/07/02 00:31:37;;;;;;;7.53;2.42;;;;;17.80;97956.00;;;;5017319;28;20124;-70
2023/07/02 00:34:04;;;;;;;4.40;2.03;;;;;17.70;97962.00;;;;5014305;28;20088;-70
2023/07/02 00:36:31;;;;;;;4.15;2.08;;;;;17.80;97962.00;;;;5012894;28;20128;-71
2023/07/02 00:38:58;;;;;;;3.80;2.13;;;;;17.70;97966.00;;;;5028666;28;20042;-71
2023/07/02 00:41:26;;;;;;;7.90;2.03;;;;;17.70;97960.00;;;;5013896;28;20125;-71
2023/07/02 00:43:56;;;;;;;3.00;1.77;;;;;17.70;97970.00;;;;5028940;28;20084;-71
2023/07/02 00:46:24;;;;;;;5.05;2.92;;;;;17.70;97974.00;;;;5011938;28;20046;-71
2023/07/02 00:48:54;;;;;;;2.72;2.25;;;;;17.70;97975.00;;;;5012053;28;20124;-71
2023/07/02 00:51:24;;;;;;;2.58;2.10;;;;;17.70;97975.00;;;;5012206;28;20050;-70
2023/07/02 00:53:53;;;;;;;6.95;2.70;;;;;17.70;97965.00;;;;4995827;28;20056;-71
2023/07/02 00:56:19;;;;;;;3.55;1.92;;;;;17.70;97976.00;;;;5013445;28;20124;-71
2023/07/02 00:58:50;;;;;;;3.35;2.22;;;;;17.70;97968.00;;;;5012379;28;20049;-70
2023/07/02 01:01:19;;;;;;;4.07;2.70;;;;;17.70;97974.00;;;;5011594;28;20074;-71
2023/07/02 01:04:07;;;;;;;4.25;2.50;;;;;17.70;97985.00;;;;4995699;28;20054;-71
2023/07/02 01:06:37;;;;;;;9.02;3.85;;;;;17.60;97982.00;;;;5013727;28;20077;-70
2023/07/02 01:09:05;;;;;;;5.60;2.58;;;;;17.60;97984.00;;;;4995426;28;20104;-70
2023/07/02 01:11:39;;;;;;;6.07;2.83;;;;;17.50;97986.00;;;;5013486;28;20068;-70
2023/07/02 01:14:16;;;;;;;5.97;3.45;;;;;17.50;97994.00;;;;5011862;28;20061;-70
2023/07/02 01:16:43;;;;;;;4.82;2.72;;;;;17.50;97998.00;;;;5011988;28;20046;-71
2023/07/02 01:19:19;;;;;;;5.47;2.88;;;;;17.50;97986.00;;;;5027618;28;20076;-71
2023/07/02 01:21:49;;;;;;;5.47;2.83;;;;;17.50;97994.00;;;;5013191;28;20077;-70
2023/07/02 01:24:17;;;;;;;6.63;3.28;;;;;17.50;97999.00;;;;5027864;28;20446;-71
2023/07/02 01:26:45;;;;;;;8.50;2.97;;;;;17.60;98003.00;;;;5028043;28;20069;-71
2023/07/02 01:29:15;;;;;;;6.38;2.92;;;;;17.60;97997.00;;;;5012157;28;20073;-70
2023/07/02 01:31:42;;;;;;;6.97;3.38;;;;;17.70;97986.00;;;;5028088;28;20069;-71
2023/07/02 01:34:09;;;;;;;6.70;3.60;;;;;17.70;97989.00;;;;5011552;28;20057;-70
2023/07/02 01:36:36;;;;;;;7.40;3.15;;;;;17.70;97983.00;;;;5027811;28;20046;-71
2023/07/02 01:39:03;;;;;;;6.65;3.42;;;;;17.60;97984.00;;;;5010890;28;20133;-71
2023/07/02 01:41:36;;;;;;;10.38;4.05;;;;;17.50;97984.00;;;;5027906;28;20050;-69
2023/07/02 01:44:03;;;;;;;5.27;3.50;;;;;17.50;97990.00;;;;5027618;28;20050;-69
2023/07/02 01:46:30;;;;;;;9.98;4.22;;;;;17.50;97983.00;;;;5011414;28;20054;-70
2023/07/02 01:48:56;;;;;;;7.03;4.20;;;;;17.50;97987.00;;;;5012090;28;20038;-69
2023/07/02 01:51:23;;;;;;;7.90;4.25;;;;;17.50;97997.00;;;;5012748;28;20077;-69
2023/07/02 01:53:49;;;;;;;7.50;4.03;;;;;17.50;97990.00;;;;4994676;28;20073;-72
2023/07/02 01:56:16;;;;;;;10.02;3.88;;;;;17.50;97991.00;;;;5011450;28;20081;-70
2023/07/02 01:58:43;;;;;;;13.27;5.55;;;;;17.50;97997.00;;;;5010616;28;20141;-69
2023/07/02 02:01:10;;;;;;;5.80;4.30;;;;;17.50;98002.00;;;;5010671;28;20073;-70
2023/07/02 02:03:37;;;;;;;9.85;4.32;;;;;17.50;98002.00;;;;5011092;28;20061;-69
2023/07/02 02:06:03;;;;;;;7.88;4.63;;;;;17.50;97990.00;;;;5011362;28;20498;-69
2023/07/02 02:08:30;;;;;;;12.75;5.18;;;;;17.50;97995.00;;;;5027743;28;20050;-71
2023/07/02 02:10:57;;;;;;;9.82;4.57;;;;;17.60;98001.00;;;;5011114;28;20108;-69
2023/07/02 02:13:23;;;;;;;9.35;4.97;;;;;17.60;98003.00;;;;5011836;28;20426;-69
2023/07/02 02:15:50;;;;;;;8.98;4.30;;;;;17.50;98002.00;;;;5012609;28;20050;-69
2023/07/02 02:18:17;;;;;;;10.15;4.88;;;;;17.50;98014.00;;;;5012166;28;20071;-70
2023/07/02 02:20:43;;;;;;;9.27;5.15;;;;;17.50;98006.00;;;;5010697;28;20050;-69
2023/07/02 02:23:10;;;;;;;10.23;4.80;;;;;17.50;98006.00;;;;5011208;28;20145;-69
2023/07/02 02:25:36;;;;;;;9.00;4.55;;;;;17.50;98004.00;;;;5012266;28;20129;-69
2023/07/02 02:28:03;;;;;;;10.40;5.65;;;;;17.50;98012.00;;;;5011365;28;20491;-69
2023/07/02 02:30:30;;;;;;;10.02;4.93;;;;;17.50;98007.00;;;;5027248;28;20042;-69
2023/07/02 02:32:57;;;;;;;7.90;5.13;;;;;17.50;98008.00;;;;5027957;28;20140;-70
2023/07/02 02:35:25;;;;;;;7.78;4.68;;;;;17.50;98010.00;;;;5027536;28;20121;-71
2023/07/02 02:37:51;;;;;;;8.18;4.35;;;;;17.50;98002.00;;;;5011390;28;20053;-71
2023/07/02 02:40:18;;;;;;;10.18;5.05;;;;;17.50;98007.00;;;;5026887;28;20048;-71
2023/07/02 02:42:45;;;;;;;8.35;4.50;;;;;17.40;98021.00;;;;5012136;28;20491;-69
2023/07/02 02:45:12;;;;;;;11.50;5.80;;;;;17.40;98014.00;;;;4994436;28;20050;-69
2023/07/02 02:47:39;;;;;;;8.85;4.68;;;;;17.30;97999.00;;;;5010892;28;20042;-69
2023/07/02 02:50:06;;;;;;;6.85;4.75;;;;;17.30;98005.00;;;;5011773;28;20112;-72
2023/07/02 02:52:33;;;;;;;6.55;4.60;;;;;17.30;98009.00;;;;5027220;28;20057;-70
2023/07/02 02:54:59;;;;;;;7.85;5.05;;;;;17.30;98008.00;;;;5010616;28;20612;-71
2023/07/02 02:57:26;;;;;;;8.35;4.53;;;;;17.20;98013.00;;;;5010800;28;20041;-71
2023/07/02 02:59:52;;;;;;;11.02;4.93;;;;;17.20;98009.00;;;;5009899;28;20050;-71
2023/07/02 03:02:19;;;;;;;9.20;4.65;;;;;17.10;98008.00;;;;5027124;28;20053;-71
2023/07/02 03:04:46;;;;;;;10.20;4.50;;;;;17.10;98012.00;;;;5027340;28;20529;-71
2023/07/02 03:07:12;;;;;;;6.25;4.28;;;;;17.10;98017.00;;;;5011792;28;20088;-72
2023/07/02 03:09:39;;;;;;;9.40;4.20;;;;;17.10;98010.00;;;;5011192;28;20046;-69
2023/07/02 03:12:06;;;;;;;10.48;4.80;;;;;17.10;98007.00;;;;4998081;28;20049;-69
2023/07/02 03:14:33;;;;;;;7.20;4.50;;;;;17.00;98010.00;;;;5015280;28;20046;-69
2023/07/02 03:17:00;;;;;;;8.60;4.88;;;;;17.00;98014.00;;;;5030734;28;20153;-69
2023/07/02 03:19:27;;;;;;;9.25;5.10;;;;;17.00;98006.00;;;;5030691;28;20046;-69
2023/07/02 03:21:53;;;;;;;9.50;5.13;;;;;17.00;98012.00;;;;5015993;28;20499;-69
2023/07/02 03:24:21;;;;;;;10.75;4.47;;;;;17.00;98015.00;;;;5014741;28;20049;-69
2023/07/02 03:26:47;;;;;;;11.45;5.05;;;;;17.10;98022.00;;;;5032135;28;20453;-69
2023/07/02 03:29:15;;;;;;;10.82;5.40;;;;;17.10;98017.00;;;;5040490;28;20573;-72
2023/07/02 03:31:42;;;;;;;8.18;4.78;;;;;17.10;98018.00;;;;5029598;28;20046;-71
2023/07/02 03:34:09;;;;;;;9.25;4.55;;;;;17.10;98015.00;;;;5045010;28;20131;-71
2023/07/02 03:36:37;;;;;;;8.25;5.28;;;;;17.10;98012.00;;;;5027142;28;20076;-71
2023/07/02 03:39:04;;;;;;;9.63;5.05;;;;;17.10;98016.00;;;;5025585;28;20073;-71
2023/07/02 03:41:35;;;;;;;9.48;5.05;;;;;17.10;98026.00;;;;5042578;28;20054;-70
2023/07/02 03:44:02;;;;;;;7.93;5.05;;;;;17.10;98037.00;;;;5031947;28;20045;-71
2023/07/02 03:46:30;;;;;;;8.88;5.40;;;;;17.10;98035.00;;;;5032683;28;20057;-71
2023/07/02 03:48:57;;;;;;;10.38;5.78;;;;;17.20;98031.00;;;;5029293;28;20466;-71
2023/07/02 03:51:23;;;;;;;10.07;5.45;;;;;17.10;98049.00;;;;5032213;28;20406;-71
2023/07/02 03:53:50;;;;;;;14.50;5.45;;;;;17.20;98043.00;;;;5031617;28;20045;-70
2023/07/02 03:56:17;;;;;;;9.75;5.70;;;;;17.20;98041.00;;;;5029427;28;20126;-71
2023/07/02 03:58:43;;;;;;;13.18;5.68;;;;;17.30;98045.00;;;;5023720;28;20038;-71
2023/07/02 04:01:10;;;;;;;10.57;5.00;;;;;17.30;98047.00;;;;5038507;28;20407;-71
2023/07/02 04:03:38;;;;;;;9.50;5.32;;;;;17.30;98049.00;;;;5022996;28;20050;-71
2023/07/02 04:06:06;;;;;;;9.40;5.40;;;;;17.40;98056.00;;;;5020536;28;20430;-71
2023/07/02 04:08:32;;;;;;;10.43;5.20;;;;;17.40;98054.00;;;;5020931;28;20041;-71
2023/07/02 04:10:59;;;;;;;11.68;5.68;;;;;17.40;98057.00;;;;5020060;28;20042;-71
2023/07/02 04:13:26;;;;;;;10.68;5.75;;;;;17.40;98059.00;;;;5002465;28;20073;-71
2023/07/02 04:15:52;;;;;;;9.48;5.60;;;;;17.50;98060.00;;;;5019758;28;20050;-70
2023/07/02 04:18:19;;;;;;;10.48;5.38;;;;;17.60;98064.00;;;;5001516;28;20042;-71
2023/07/02 04:20:46;;;;;;;10.52;5.55;;;;;17.70;98069.00;;;;5032767;28;20080;-71
2023/07/02 04:23:13;;;;;;;10.02;5.60;;;;;17.70;98066.00;;;;5034286;28;20092;-71
2023/07/02 04:25:40;;;;;;;8.40;5.65;;;;;17.80;98074.00;;;;5019464;28;20096;-72
2023/07/02 04:28:27;;;;;;;10.43;5.95;;;;;17.80;98066.00;;;;5019013;28;20037;-71
2023/07/02 04:30:53;;;;;;;24.73;7.05;;;;;17.80;98071.00;;;;5034395;28;20046;-71
2023/07/02 04:33:20;;;;;;;12.40;6.80;;;;;17.90;98079.00;;;;5020364;28;20495;-72
2023/07/02 04:35:46;;;;;;;12.52;6.72;;;;;17.90;98072.00;;;;5018625;28;20132;-71
2023/07/02 04:38:13;;;;;;;11.32;6.55;;;;;17.90;98079.00;;;;5013406;28;20141;-71
2023/07/02 04:40:41;;;;;;;11.05;6.68;;;;;18.00;98080.00;;;;5014043;28;20136;-71
2023/07/02 04:43:08;;;;;;;17.38;7.95;;;;;18.00;98086.00;;;;5013102;28;20054;-71
2023/07/02 04:45:36;;;;;;;12.38;7.78;;;;;18.00;98088.00;;;;5014593;28;20502;-70
2023/07/02 04:48:04;;;;;;;13.52;7.38;;;;;18.10;98095.00;;;;5013148;28;20140;-72
2023/07/02 04:50:30;;;;;;;16.17;9.75;;;;;18.10;98087.00;;;;5013547;28;20046;-71
2023/07/02 04:52:57;;;;;;;17.45;8.38;;;;;18.10;98097.00;;;;5014257;28;20077;-72
2023/07/02 04:55:24;;;;;;;15.05;8.10;;;;;18.10;98089.00;;;;5012962;28;20109;-72
2023/07/02 04:57:50;;;;;;;14.43;8.75;;;;;18.20;98104.00;;;;4997850;28;20127;-72
2023/07/02 05:00:17;;;;;;;15.60;8.57;;;;;18.30;98106.00;;;;5030896;28;20073;-71
2023/07/02 05:02:44;;;;;;;13.75;8.02;;;;;18.30;98107.00;;;;5034766;28;20144;-70
2023/07/02 05:05:11;;;;;;;12.02;7.93;;;;;18.40;98109.00;;;;5018094;28;20060;-72
2023/07/02 05:07:37;;;;;;;17.02;9.63;;;;;18.50;98115.00;;;;5020162;28;20033;-73
2023/07/02 05:10:04;;;;;;;13.43;8.35;;;;;18.50;98115.00;;;;5033707;28;20080;-71
2023/07/02 05:12:32;;;;;;;15.25;8.70;;;;;18.60;98119.00;;;;4999126;28;20141;-73
2023/07/02 05:14:59;;;;;;;16.90;9.40;;;;;18.50;98122.00;;;;5014705;28;20053;-73
2023/07/02 05:17:26;;;;;;;16.73;9.00;;;;;18.40;98127.00;;;;5014905;28;20104;-73
2023/07/02 05:19:52;;;;;;;12.95;8.90;;;;;18.40;98117.00;;;;5012861;28;20132;-73
2023/07/02 05:22:19;;;;;;;18.85;9.70;;;;;18.40;98131.00;;;;5015052;28;20046;-73
2023/07/02 05:24:46;;;;;;;21.60;10.07;;;;;18.40;98125.00;;;;5013793;28;20465;-73
2023/07/02 05:27:13;;;;;;;18.10;9.95;;;;;18.40;98130.00;;;;5013075;28;20061;-71
2023/07/02 05:29:39;;;;;;;17.30;9.88;;;;;18.40;98127.00;;;;5013627;28;20053;-73
2023/07/02 05:32:06;;;;;;;15.80;8.88;;;;;18.40;98133.00;;;;4996489;28;20057;-74
2023/07/02 05:34:33;;;;;;;16.15;9.32;;;;;18.40;98127.00;;;;5012227;28;20510;-72
2023/07/02 05:37:00;;;;;;;18.67;10.25;;;;;18.50;98147.00;;;;5014375;28;20046;-72
2023/07/02 05:39:27;;;;;;;19.58;9.43;;;;;18.60;98141.00;;;;5028324;28;20100;-72
2023/07/02 05:41:54;;;;;;;17.13;9.60;;;;;18.60;98129.00;;;;5012868;28;20073;-73
2023/07/02 05:44:20;;;;;;;17.55;9.30;;;;;18.60;98134.00;;;;5013965;28;20108;-73
2023/07/02 05:46:48;;;;;;;18.70;9.38;;;;;18.60;98134.00;;;;5029081;28;20549;-72
2023/07/02 05:49:15;;;;;;;19.50;9.93;;;;;18.60;98131.00;;;;5012041;28;21083;-73
2023/07/02 05:51:41;;;;;;;18.40;9.60;;;;;18.60;98134.00;;;;5014080;28;20457;-73
2023/07/02 05:54:08;;;;;;;17.38;9.10;;;;;18.70;98136.00;;;;5014088;28;20089;-73
2023/07/02 05:56:35;;;;;;;21.17;10.38;;;;;18.60;98133.00;;;;5029252;28;20186;-72
2023/07/02 05:59:01;;;;;;;17.95;9.55;;;;;18.60;98141.00;;;;5012074;28;20049;-73
2023/07/02 06:01:28;;;;;;;16.90;9.38;;;;;18.60;98134.00;;;;5012142;28;20077;-73
2023/07/02 06:03:55;;;;;;;17.60;10.18;;;;;18.60;98127.00;;;;5012437;28;20474;-72
2023/07/02 06:06:25;;;;;;;18.55;9.52;;;;;18.70;98139.00;;;;4996486;28;20052;-72
2023/07/02 06:08:52;;;;;;;16.58;10.32;;;;;18.80;98142.00;;;;5013537;28;20104;-74
2023/07/02 06:11:19;;;;;;;16.35;10.15;;;;;18.80;98138.00;;;;5012267;28;20092;-72
2023/07/02 06:13:46;;;;;;;16.27;10.43;;;;;18.80;98140.00;;;;5012324;28;20080;-72
2023/07/02 06:16:13;;;;;;;18.02;10.60;;;;;18.90;98138.00;;;;5014110;28;20052;-71
2023/07/02 06:18:41;;;;;;;20.25;11.40;;;;;18.90;98137.00;;;;5014748;28;20081;-71
2023/07/02 06:21:08;;;;;;;19.17;10.48;;;;;18.90;98145.00;;;;5013159;28;20053;-71
2023/07/02 06:23:44;;;;;;;17.80;10.98;;;;;18.90;98144.00;;;;5030281;28;20076;-71
2023/07/02 06:26:10;;;;;;;22.00;10.40;;;;;19.00;98146.00;;;;5014927;28;20431;-71
2023/07/02 06:28:39;;;;;;;18.45;10.70;;;;;19.00;98153.00;;;;5013873;28;20140;-71
2023/07/02 06:31:05;;;;;;;19.00;11.57;;;;;19.00;98150.00;;;;5029473;28;20050;-72
2023/07/02 06:33:33;;;;;;;17.73;10.90;;;;;19.10;98153.00;;;;5012965;28;20050;-70
2023/07/02 06:35:59;;;;;;;21.85;10.63;;;;;19.30;98156.00;;;;5012559;28;20050;-70
2023/07/02 06:38:26;;;;;;;20.88;11.38;;;;;19.30;98165.00;;;;5012109;28;20049;-71
2023/07/02 06:40:53;;;;;;;18.00;11.50;;;;;19.40;98161.00;;;;5029010;28;20117;-71
2023/07/02 06:43:19;;;;;;;18.90;11.32;;;;;19.40;98164.00;;;;5014619;28;20049;-73
2023/07/02 06:45:46;;;;;;;20.83;11.27;;;;;19.40;98167.00;;;;5016212;28;20048;-71
2023/07/02 06:48:16;;;;;;;20.15;12.00;;;;;19.40;98166.00;;;;5017475;28;20038;-70
2023/07/02 06:50:45;;;;;;;19.40;11.52;;;;;19.50;98157.00;;;;5017722;28;20069;-70
2023/07/02 06:53:12;;;;;;;20.17;12.13;;;;;19.60;98159.00;;;;5017742;28;20168;-72
2023/07/02 06:55:39;;;;;;;25.48;12.68;;;;;19.60;98158.00;;;;5017973;28;20050;-70
2023/07/02 06:58:06;;;;;;;20.65;12.63;;;;;19.50;98168.00;;;;5018061;28;20430;-72
2023/07/02 07:00:36;;;;;;;22.00;13.85;;;;;19.60;98156.00;;;;5031915;28;20046;-69
2023/07/02 07:03:03;;;;;;;27.23;13.93;;;;;19.60;98168.00;;;;5032208;28;20065;-68
2023/07/02 07:05:31;;;;;;;22.25;13.07;;;;;19.60;98175.00;;;;5016821;28;20623;-69
2023/07/02 07:07:59;;;;;;;27.08;14.30;;;;;19.60;98171.00;;;;5031535;28;20050;-69
2023/07/02 07:10:26;;;;;;;27.42;14.43;;;;;19.50;98178.00;;;;5031088;28;20100;-69
2023/07/02 07:12:53;;;;;;;23.02;13.77;;;;;19.40;98176.00;;;;5015107;28;20074;-71
2023/07/02 07:15:20;;;;;;;23.27;14.07;;;;;19.40;98179.00;;;;5031405;28;20050;-70
2023/07/02 07:17:46;;;;;;;23.80;13.68;;;;;19.60;98169.00;;;;5015358;28;20050;-71
2023/07/02 07:20:13;;;;;;;27.33;14.48;;;;;19.80;98169.00;;;;5015955;28;20069;-69
2023/07/02 07:22:40;;;;;;;28.05;15.07;;;;;20.10;98166.00;;;;5015067;28;20058;-70
2023/07/02 07:25:08;;;;;;;24.55;15.57;;;;;20.40;98177.00;;;;4998661;28;20061;-69
2023/07/02 07:27:34;;;;;;;27.50;15.52;;;;;20.50;98177.00;;;;5016289;28;20077;-72
2023/07/02 07:30:01;;;;;;;30.70;15.70;;;;;20.50;98170.00;;;;5015923;28;20045;-71
2023/07/02 07:32:28;;;;;;;23.52;14.85;;;;;20.60;98183.00;;;;5014837;28;20519;-71
2023/07/02 07:34:54;;;;;;;28.60;15.93;;;;;20.60;98180.00;;;;5015971;28;20038;-71
2023/07/02 07:37:21;;;;;;;23.80;14.90;;;;;20.50;98186.00;;;;5015111;28;20053;-71
2023/07/02 07:39:48;;;;;;;27.02;15.60;;;;;20.60;98179.00;;;;5015556;28;20402;-71
2023/07/02 07:42:16;;;;;;;24.70;14.40;;;;;20.80;98183.00;;;;5015166;28;20081;-71
2023/07/02 07:44:46;;;;;;;24.40;14.88;;;;;21.00;98177.00;;;;5015262;28;20592;-73
2023/07/02 07:47:13;;;;;;;25.00;15.07;;;;;21.30;98178.00;;;;5015998;28;20077;-73
2023/07/02 07:49:39;;;;;;;26.02;15.60;;;;;21.40;98186.00;;;;4997921;28;20058;-73
2023/07/02 07:52:06;;;;;;;26.38;14.77;;;;;21.40;98180.00;;;;5031020;28;20483;-73
2023/07/02 07:54:37;;;;;;;23.20;14.80;;;;;21.50;98184.00;;;;5014749;28;20446;-72
2023/07/02 07:57:04;;;;;;;21.85;13.38;;;;;21.70;98187.00;;;;5013907;28;20073;-72
2023/07/02 07:59:31;;;;;;;24.92;14.90;;;;;21.70;98183.00;;;;5030518;28;20042;-72
2023/07/02 08:01:58;;;;;;;29.05;14.85;;;;;21.80;98184.00;;;;5014720;28;20046;-72
2023/07/02 08:04:25;;;;;;;25.95;15.07;;;;;21.70;98176.00;;;;5014216;28;20050;-72
2023/07/02 08:06:51;;;;;;;23.73;15.05;;;;;21.70;98179.00;;;;5031009;28;20467;-72
2023/07/02 08:09:18;;;;;;;28.50;15.18;;;;;21.80;98174.00;;;;4997293;28;20145;-72
2023/07/02 08:11:46;;;;;;;24.85;14.63;;;;;21.90;98185.00;;;;5016625;28;20054;-72
2023/07/02 08:14:13;;;;;;;25.70;15.38;;;;;22.00;98189.00;;;;5014746;28;20498;-72
2023/07/02 08:16:40;;;;;;;24.88;15.02;;;;;21.90;98179.00;;;;5031701;28;20046;-72
2023/07/02 08:19:07;;;;;;;24.33;15.10;;;;;22.00;98182.00;;;;5014845;28;20497;-73
2023/07/02 08:21:33;;;;;;;24.27;13.10;;;;;22.10;98192.00;;;;5016177;28;20073;-72
2023/07/02 08:24:00;;;;;;;25.92;15.63;;;;;22.10;98185.00;;;;5031817;28;20418;-72
2023/07/02 08:26:27;;;;;;;24.58;14.75;;;;;22.20;98195.00;;;;4999388;28;20054;-74
2023/07/02 08:28:53;;;;;;;26.73;15.40;;;;;22.20;98194.00;;;;5015206;28;20046;-73
2023/07/02 08:31:20;;;;;;;24.33;15.05;;;;;22.00;98197.00;;;;5030577;28;20108;-71
2023/07/02 08:33:47;;;;;;;24.92;15.63;;;;;21.80;98206.00;;;;5030141;28;20093;-73
2023/07/02 08:36:13;;;;;;;26.80;15.77;;;;;21.60;98207.00;;;;5014798;28;20057;-74
2023/07/02 08:38:42;;;;;;;22.50;14.05;;;;;21.60;98191.00;;;;5030097;28;20121;-73
2023/07/02 08:41:08;;;;;;;25.80;15.07;;;;;21.70;98189.00;;;;5013816;28;20046;-71
2023/07/02 08:43:35;;;;;;;24.75;14.27;;;;;21.90;98193.00;;;;5029863;28;20041;-72
2023/07/02 08:46:02;;;;;;;23.73;14.95;;;;;22.30;98188.00;;;;5014636;28;20120;-71
2023/07/02 08:48:29;;;;;;;24.73;15.15;;;;;22.60;98195.00;;;;5014619;28;20461;-73
2023/07/02 08:50:56;;;;;;;28.23;14.48;;;;;22.60;98206.00;;;;5012212;28;20056;-73
2023/07/02 08:53:29;;;;;;;25.85;15.68;;;;;22.60;98209.00;;;;5014341;28;20133;-72
2023/07/02 08:55:56;;;;;;;26.27;14.80;;;;;22.40;98209.00;;;;5012864;28;20589;-72
2023/07/02 08:58:23;;;;;;;25.02;14.82;;;;;22.30;98204.00;;;;5012975;28;20545;-72
2023/07/02 09:01:10;;;;;;;25.13;15.63;;;;;22.40;98213.00;;;;5013487;28;20045;-72
2023/07/02 09:03:38;;;;;;;24.13;15.48;;;;;22.50;98215.00;;;;5028873;28;20052;-72
2023/07/02 09:06:07;;;;;;;23.63;14.40;;;;;22.60;98215.00;;;;5014559;28;20088;-72
2023/07/02 09:08:35;;;;;;;24.20;14.88;;;;;22.70;98200.00;;;;5011961;28;20049;-72
2023/07/02 09:11:09;;;;;;;26.00;15.55;;;;;22.60;98218.00;;;;5012437;28;20049;-72
2023/07/02 09:13:46;;;;;;;26.25;15.75;;;;;22.30;98204.00;;;;5013048;28;20045;-71
2023/07/02 09:16:29;;;;;;;24.80;15.45;;;;;22.20;98221.00;;;;5029774;28;20053;-72
2023/07/02 09:18:57;;;;;;;;;;;;;22.30;98210.00;;;;5014305;28;20072;-70
2023/07/02 09:21:38;;;;;;;26.73;15.68;;;;;22.40;98211.00;;;;5029568;28;19921;-73
2023/07/02 09:24:22;;;;;;;29.35;16.55;;;;;22.50;98232.00;;;;5012529;28;20046;-72
2023/07/02 09:26:51;;;;;;;24.42;15.32;;;;;22.60;98230.00;;;;5013657;28;20050;-73
2023/07/02 09:29:29;;;;;;;25.67;16.17;;;;;22.60;98223.00;;;;5028092;28;20046;-72
2023/07/02 09:32:00;;;;;;;28.65;16.38;;;;;22.50;98234.00;;;;5012256;28;20417;-72
2023/07/02 09:34:32;;;;;;;30.20;16.95;;;;;22.20;98237.00;;;;5011792;28;20502;-72
2023/07/02 09:37:04;;;;;;;25.13;15.85;;;;;22.20;98232.00;;;;5012715;28;20077;-72
2023/07/02 09:39:33;;;;;;;27.83;15.98;;;;;22.40;98224.00;;;;5011593;28;20044;-73
2023/07/02 09:42:02;;;;;;;27.45;15.57;;;;;22.40;98231.00;;;;5028505;28;20092;-72
2023/07/02 09:44:31;;;;;;;24.33;15.60;;;;;22.40;98229.00;;;;5028108;28;20042;-73
2023/07/02 09:47:06;;;;;;;26.55;15.80;;;;;22.40;98239.00;;;;4995786;28;20499;-73
2023/07/02 09:49:41;;;;;;;26.60;15.65;;;;;22.30;98239.00;;;;5011328;28;20145;-70
2023/07/02 09:52:10;;;;;;;29.13;16.45;;;;;22.30;98239.00;;;;4995551;28;20498;-72
2023/07/02 09:54:37;;;;;;;27.08;17.08;;;;;22.40;98231.00;;;;5013062;28;20045;-71
2023/07/02 09:57:06;;;;;;;29.27;16.17;;;;;22.70;98229.00;;;;4995558;28;20054;-71
2023/07/02 09:59:33;;;;;;;27.10;15.90;;;;;23.10;98237.00;;;;5012256;28;20490;-72
2023/07/02 10:01:59;;;;;;;25.63;16.05;;;;;23.30;98236.00;;;;5028340;28;20077;-72
2023/07/02 10:04:39;;;;;;;25.42;16.27;;;;;23.30;98231.00;;;;5013069;28;20046;-71
2023/07/02 10:07:05;;;;;;;26.67;14.60;;;;;23.40;98237.00;;;;5013517;28;20046;-70
2023/07/02 10:09:36;;;;;;;25.52;15.50;;;;;23.30;98232.00;;;;5012828;28;20119;-71
2023/07/02 10:12:22;;;;;;;22.40;14.77;;;;;23.20;98241.00;;;;5028611;28;20073;-68
2023/07/02 10:14:52;;;;;;;24.35;14.57;;;;;23.40;98230.00;;;;5011800;28;20160;-68
2023/07/02 10:17:32;;;;;;;27.60;17.38;;;;;23.70;98236.00;;;;5012063;28;20056;-70
2023/07/02 10:20:22;;;;;;;24.85;15.35;;;;;23.90;98250.00;;;;5029447;28;20041;-72
2023/07/02 10:22:54;;;;;;;21.83;13.45;;;;;23.80;98231.00;;;;5032113;28;20042;-70
2023/07/02 10:25:25;;;;;;;22.70;14.13;;;;;23.70;98232.00;;;;5016724;28;20046;-72
2023/07/02 10:27:52;;;;;;;23.92;13.95;;;;;23.50;98244.00;;;;5015501;28;20041;-72
2023/07/02 10:30:33;;;;;;;22.88;14.13;;;;;23.40;98244.00;;;;5031233;28;20042;-72
2023/07/02 10:33:10;;;;;;;22.65;13.40;;;;;23.40;98236.00;;;;5015058;28;20494;-72
2023/07/02 10:35:38;;;;;;;24.45;13.30;;;;;23.30;98236.00;;;;5015255;28;20054;-71
2023/07/02 10:38:08;;;;;;;20.70;13.68;;;;;23.40;98237.00;;;;5015240;28;20053;-72
2023/07/02 10:40:34;;;;;;;24.05;14.65;;;;;23.50;98232.00;;;;5031282;28;20046;-71
2023/07/02 10:43:01;;;;;;;22.92;14.63;;;;;23.70;98231.00;;;;5015812;28;20042;-69
2023/07/02 10:45:33;;;;;;;23.30;14.70;;;;;23.80;98237.00;;;;5016796;28;20605;-71
2023/07/02 10:48:08;;;;;;;29.88;15.15;;;;;23.80;98246.00;;;;5015207;28;20145;-71
2023/07/02 10:50:35;;;;;;;22.70;13.57;;;;;23.90;98239.00;;;;5015119;28;20053;-71
2023/07/02 10:53:03;;;;;;;23.30;14.13;;;;;23.90;98237.00;;;;5017128;28;20104;-73
2023/07/02 10:55:31;;;;;;;24.30;14.00;;;;;24.20;98234.00;;;;5017170;28;20128;-71
2023/07/02 10:58:06;;;;;;;21.13;14.63;;;;;24.30;98227.00;;;;5015428;28;20050;-71
2023/07/02 11:00:42;;;;;;;20.20;13.90;;;;;24.40;98231.00;;;;5015684;28;20038;-70
2023/07/02 11:03:20;;;;;;;25.13;14.98;;;;;24.40;98236.00;;;;5032028;28;20123;-70
2023/07/02 11:05:48;;;;;;;24.60;15.23;;;;;24.40;98238.00;;;;5016377;28;20068;-69
2023/07/02 11:08:16;;;;;;;22.98;15.13;;;;;24.30;98233.00;;;;5014815;28;20045;-70
2023/07/02 11:10:43;;;;;;;25.17;16.05;;;;;24.40;98231.00;;;;5030601;28;20050;-68
2023/07/02 11:13:11;;;;;;;22.90;14.20;;;;;24.70;98235.00;;;;5014559;28;20054;-69
2023/07/02 11:15:39;;;;;;;24.10;14.65;;;;;24.70;98223.00;;;;5014489;28;20053;-71
2023/07/02 11:18:17;;;;;;;23.58;15.70;;;;;24.90;98225.00;;;;5030616;28;20133;-71
2023/07/02 11:20:46;;;;;;;22.77;14.63;;;;;25.10;98233.00;;;;5015138;28;20046;-71
2023/07/02 11:23:22;;;;;;;24.73;14.45;;;;;24.90;98225.00;;;;5014268;28;20081;-73
2023/07/02 11:25:59;;;;;;;24.00;14.73;;;;;24.90;98225.00;;;;5013973;28;20060;-71
2023/07/02 11:28:27;;;;;;;23.48;14.73;;;;;24.80;98226.00;;;;5030334;28;20076;-69
2023/07/02 11:30:55;;;;;;;23.08;14.23;;;;;24.90;98232.00;;;;5012448;28;20422;-69
2023/07/02 11:33:38;;;;;;;20.75;13.43;;;;;24.70;98226.00;;;;5015421;28;20122;-70
2023/07/02 11:36:06;;;;;;;21.80;14.32;;;;;24.70;98236.00;;;;5030504;28;20668;-70
2023/07/02 11:38:36;;;;;;;24.23;14.80;;;;;24.60;98224.00;;;;5013727;28;20046;-70
2023/07/02 11:41:04;;;;;;;24.10;14.15;;;;;24.70;98225.00;;;;5014590;28;20066;-70
2023/07/02 11:43:30;;;;;;;23.60;14.70;;;;;24.60;98221.00;;;;5014954;28;20050;-69
2023/07/02 11:45:57;;;;;;;25.75;14.30;;;;;24.70;98218.00;;;;5013906;28;20052;-70
2023/07/02 11:48:24;;;;;;;20.38;13.43;;;;;24.50;98224.00;;;;5013652;28;20084;-70
2023/07/02 11:50:50;;;;;;;25.17;15.23;;;;;24.30;98232.00;;;;5014508;28;20125;-71
2023/07/02 11:53:17;;;;;;;22.30;14.05;;;;;24.30;98224.00;;;;5013332;28;20084;-70
2023/07/02 11:55:43;;;;;;;24.42;13.98;;;;;24.70;98219.00;;;;4997139;28;20088;-71
2023/07/02 11:58:10;;;;;;;26.35;15.52;;;;;24.90;98217.00;;;;5015230;28;20091;-70
2023/07/02 12:00:37;;;;;;;21.98;14.40;;;;;25.10;98213.00;;;;5014314;28;20132;-70
2023/07/02 12:03:04;;;;;;;25.90;14.90;;;;;25.10;98218.00;;;;5014757;28;20406;-70
2023/07/02 12:05:30;;;;;;;21.52;15.00;;;;;24.90;98214.00;;;;5013387;28;20120;-70
2023/07/02 12:07:57;;;;;;;25.17;14.70;;;;;24.80;98208.00;;;;5013352;28;20569;-70
2023/07/02 12:10:23;;;;;;;20.27;13.55;;;;;25.00;98211.00;;;;5014182;28;20064;-70
2023/07/02 12:12:50;;;;;;;20.20;13.65;;;;;25.30;98218.00;;;;5029752;28;20077;-71